Time;durP1;ratioP1;P1;durP2;ratioP2;P2;SDS_P1;SDS_P2;PMS_P1;PMS_P2;Temp;Humidity;BMP_temperature;BMP_pressure;BME280_temperature;BME280_humidity;BME280_pressure;Samples;Min_cycle;Max_cycle;Signal;HPM_P1;HPM_P2
2024/01/13 00:00:03;;;;;;;18.60;3.60;;;;;;;;;;1043712;28;20013;-21
2024/01/13 00:00:34;;;;;;;5.80;3.88;;;;;;;;;;1043615;28;20127;-23
2024/01/13 00:01:05;;;;;;;8.45;7.70;;;;;;;;;;1043324;28;20020;-21
2024/01/13 00:01:35;;;;;;;5.75;5.10;;;;;;;;;;1043782;28;20024;-23
2024/01/13 00:02:06;;;;;;;7.85;7.07;;;;;;;;;;1043880;28;20033;-23
2024/01/13 00:02:36;;;;;;;3.47;3.28;;;;;;;;;;1043824;28;20024;-22
2024/01/13 00:03:06;;;;;;;5.68;5.30;;;;;;;;;;1043903;28;20060;-23
2024/01/13 00:03:37;;;;;;;10.75;8.63;;;;;;;;;;1043784;28;20480;-22
2024/01/13 00:04:07;;;;;;;4.53;4.25;;;;;;;;;;1043420;28;20048;-22
2024/01/13 00:04:38;;;;;;;23.05;7.80;;;;;;;;;;1043837;28;20016;-21
2024/01/13 00:05:08;;;;;;;7.13;6.63;;;;;;;;;;1044079;28;20427;-22
2024/01/13 00:05:39;;;;;;;5.43;5.03;;;;;;;;;;1043532;28;20542;-22
2024/01/13 00:06:09;;;;;;;4.90;4.50;;;;;;;;;;1043701;28;20079;-23
2024/01/13 00:06:39;;;;;;;11.05;4.35;;;;;;;;;;1043899;28;20154;-22
2024/01/13 00:07:10;;;;;;;6.18;5.57;;;;;;;;;;1043689;28;20028;-22
2024/01/13 00:07:40;;;;;;;2.90;2.70;;;;;;;;;;1042775;28;20025;-22
2024/01/13 00:08:11;;;;;;;3.28;3.08;;;;;;;;;;1042802;28;20025;-21
2024/01/13 00:08:41;;;;;;;34.38;9.40;;;;;;;;;;1042771;28;20017;-23
2024/01/13 00:09:12;;;;;;;5.68;5.20;;;;;;;;;;1043943;28;20032;-22
2024/01/13 00:09:42;;;;;;;6.90;6.25;;;;;;;;;;1043601;28;20021;-23
2024/01/13 00:10:13;;;;;;;6.13;5.70;;;;;;;;;;1043888;28;20075;-22
2024/01/13 00:10:43;;;;;;;7.20;6.60;;;;;;;;;;1043866;28;20083;-21
2024/01/13 00:11:14;;;;;;;5.00;4.05;;;;;;;;;;1043915;28;20020;-21
2024/01/13 00:11:44;;;;;;;4.93;4.63;;;;;;;;;;1043879;28;20123;-21
2024/01/13 00:12:14;;;;;;;7.80;6.95;;;;;;;;;;1043876;28;20025;-22
2024/01/13 00:12:45;;;;;;;6.30;5.80;;;;;;;;;;1044013;28;20035;-22
2024/01/13 00:13:15;;;;;;;6.90;5.93;;;;;;;;;;1043869;28;20024;-22
2024/01/13 00:13:46;;;;;;;11.10;3.72;;;;;;;;;;1043773;28;20028;-21
2024/01/13 00:14:16;;;;;;;14.75;6.95;;;;;;;;;;1043682;28;20027;-22
2024/01/13 00:14:47;;;;;;;6.28;5.80;;;;;;;;;;1043979;28;20029;-21
2024/01/13 00:15:18;;;;;;;5.63;3.35;;;;;;;;;;1043893;28;20098;-22
2024/01/13 00:15:49;;;;;;;2.40;2.30;;;;;;;;;;1043170;28;20036;-22
2024/01/13 00:16:19;;;;;;;12.88;7.00;;;;;;;;;;1043713;28;20025;-23
2024/01/13 00:16:50;;;;;;;9.15;6.15;;;;;;;;;;1043834;28;20075;-23
2024/01/13 00:17:20;;;;;;;2.10;2.00;;;;;;;;;;1043932;28;20028;-21
2024/01/13 00:17:51;;;;;;;4.78;4.40;;;;;;;;;;1043856;28;20017;-22
2024/01/13 00:18:21;;;;;;;7.47;6.78;;;;;;;;;;1043814;28;20017;-22
2024/01/13 00:18:52;;;;;;;5.63;4.43;;;;;;;;;;1043762;28;20024;-21
2024/01/13 00:19:23;;;;;;;5.68;5.28;;;;;;;;;;1043805;28;20103;-23
2024/01/13 00:19:53;;;;;;;11.57;8.90;;;;;;;;;;1043252;28;20050;-22
2024/01/13 00:20:24;;;;;;;7.03;6.30;;;;;;;;;;1043839;28;20485;-22
2024/01/13 00:20:54;;;;;;;8.05;5.63;;;;;;;;;;1043611;28;20117;-23
2024/01/13 00:21:24;;;;;;;13.02;8.40;;;;;;;;;;1043594;28;20036;-20
2024/01/13 00:21:55;;;;;;;8.60;7.80;;;;;;;;;;1043725;28;20514;-23
2024/01/13 00:22:25;;;;;;;5.78;4.22;;;;;;;;;;1043836;28;20075;-22
2024/01/13 00:22:56;;;;;;;8.75;5.88;;;;;;;;;;1043800;28;20081;-22
2024/01/13 00:23:26;;;;;;;4.50;4.15;;;;;;;;;;1043911;28;20025;-21
2024/01/13 00:23:57;;;;;;;5.50;5.13;;;;;;;;;;1043602;28;20075;-20
2024/01/13 00:24:27;;;;;;;7.45;6.70;;;;;;;;;;1043874;28;20116;-22
2024/01/13 00:24:57;;;;;;;3.97;3.72;;;;;;;;;;1043776;28;20028;-22
2024/01/13 00:25:28;;;;;;;3.92;3.67;;;;;;;;;;1043760;28;20032;-22
2024/01/13 00:25:58;;;;;;;10.10;5.60;;;;;;;;;;1043634;28;20029;-21
2024/01/13 00:26:29;;;;;;;3.85;3.60;;;;;;;;;;1043799;28;20025;-23
2024/01/13 00:26:59;;;;;;;6.45;5.85;;;;;;;;;;1043794;28;20112;-23
2024/01/13 00:27:30;;;;;;;5.78;4.05;;;;;;;;;;1043918;28;20059;-23
2024/01/13 00:28:00;;;;;;;11.85;9.18;;;;;;;;;;1043781;28;20107;-21
2024/01/13 00:28:31;;;;;;;10.85;8.23;;;;;;;;;;1043868;28;20029;-22
2024/01/13 00:29:01;;;;;;;4.93;4.60;;;;;;;;;;1043820;28;20025;-23
2024/01/13 00:29:32;;;;;;;8.68;6.80;;;;;;;;;;1043863;28;20073;-21
2024/01/13 00:30:02;;;;;;;7.25;3.58;;;;;;;;;;1043695;28;20020;-23
2024/01/13 00:30:33;;;;;;;9.88;5.68;;;;;;;;;;1043881;28;20071;-23
2024/01/13 00:31:04;;;;;;;4.80;4.47;;;;;;;;;;1043809;28;20029;-23
2024/01/13 00:31:35;;;;;;;8.23;7.55;;;;;;;;;;1043264;28;20058;-22
2024/01/13 00:32:05;;;;;;;12.63;6.80;;;;;;;;;;1043829;28;20602;-20
2024/01/13 00:32:36;;;;;;;6.63;6.13;;;;;;;;;;1043751;28;20071;-23
2024/01/13 00:33:06;;;;;;;2.83;2.60;;;;;;;;;;1043935;28;20029;-22
2024/01/13 00:33:36;;;;;;;6.20;5.10;;;;;;;;;;1043804;28;20020;-23
2024/01/13 00:34:07;;;;;;;8.07;7.25;;;;;;;;;;1043636;28;20452;-23
2024/01/13 00:34:37;;;;;;;5.20;4.70;;;;;;;;;;1043658;28;20036;-21
2024/01/13 00:35:08;;;;;;;4.75;3.38;;;;;;;;;;1043867;28;20020;-23
2024/01/13 00:35:39;;;;;;;4.80;4.50;;;;;;;;;;1042815;28;20063;-20
2024/01/13 00:36:10;;;;;;;6.20;5.63;;;;;;;;;;1043285;28;20033;-21
2024/01/13 00:36:40;;;;;;;7.72;6.97;;;;;;;;;;1043770;28;20055;-21
2024/01/13 00:37:11;;;;;;;7.03;6.10;;;;;;;;;;1042758;28;20112;-21
2024/01/13 00:37:41;;;;;;;36.67;5.15;;;;;;;;;;1042676;28;20021;-22
2024/01/13 00:38:11;;;;;;;3.35;3.08;;;;;;;;;;1043692;28;20025;-22
2024/01/13 00:38:42;;;;;;;6.05;5.55;;;;;;;;;;1043907;28;20554;-23
2024/01/13 00:39:12;;;;;;;5.05;4.65;;;;;;;;;;1043884;28;20056;-23
2024/01/13 00:39:43;;;;;;;7.40;6.68;;;;;;;;;;1043752;28;20429;-21
2024/01/13 00:40:13;;;;;;;10.38;6.65;;;;;;;;;;1043704;28;20399;-23
2024/01/13 00:40:44;;;;;;;6.65;5.55;;;;;;;;;;1043346;28;20028;-23
2024/01/13 00:41:14;;;;;;;8.18;7.32;;;;;;;;;;1043757;28;20025;-22
2024/01/13 00:41:45;;;;;;;6.70;5.88;;;;;;;;;;1043645;28;20017;-23
2024/01/13 00:42:15;;;;;;;4.57;3.53;;;;;;;;;;1043581;28;20564;-22
2024/01/13 00:42:45;;;;;;;6.30;5.80;;;;;;;;;;1043824;28;20495;-21
2024/01/13 00:43:16;;;;;;;3.97;3.60;;;;;;;;;;1043797;28;20118;-21
2024/01/13 00:43:47;;;;;;;3.17;2.97;;;;;;;;;;1043770;28;20051;-23
2024/01/13 00:44:17;;;;;;;6.90;6.22;;;;;;;;;;1043693;28;20495;-22
2024/01/13 00:44:48;;;;;;;6.35;5.55;;;;;;;;;;1043769;28;20057;-21
2024/01/13 00:45:18;;;;;;;6.25;5.75;;;;;;;;;;1043847;28;20028;-22
2024/01/13 00:45:49;;;;;;;3.22;2.22;;;;;;;;;;1043581;28;20058;-23
2024/01/13 00:46:19;;;;;;;6.50;5.85;;;;;;;;;;1043558;28;20025;-23
2024/01/13 00:46:49;;;;;;;7.85;7.03;;;;;;;;;;1043745;28;20043;-22
2024/01/13 00:47:20;;;;;;;5.25;4.00;;;;;;;;;;1043788;28;20036;-22
2024/01/13 00:47:50;;;;;;;8.23;6.18;;;;;;;;;;1043707;28;20025;-24
2024/01/13 00:48:21;;;;;;;1.88;1.77;;;;;;;;;;1043729;28;20116;-22
2024/01/13 00:48:51;;;;;;;6.50;5.88;;;;;;;;;;1043776;28;20035;-23
2024/01/13 00:49:22;;;;;;;5.93;5.43;;;;;;;;;;1043437;28;20031;-23
2024/01/13 00:49:52;;;;;;;4.50;4.10;;;;;;;;;;1043457;28;20028;-22
2024/01/13 00:50:22;;;;;;;7.03;6.45;;;;;;;;;;1043659;28;20025;-21
2024/01/13 00:50:53;;;;;;;6.50;6.05;;;;;;;;;;1043566;28;20496;-21
2024/01/13 00:51:23;;;;;;;5.13;4.72;;;;;;;;;;1043594;28;20590;-22
2024/01/13 00:51:54;;;;;;;11.02;6.65;;;;;;;;;;1043606;28;20025;-22
2024/01/13 00:52:26;;;;;;;6.00;5.43;;;;;;;;;;1043803;28;20029;-22
2024/01/13 00:52:57;;;;;;;3.65;3.42;;;;;;;;;;1042651;28;20500;-23
2024/01/13 00:53:27;;;;;;;7.78;7.00;;;;;;;;;;1043828;28;20020;-22
2024/01/13 00:53:58;;;;;;;6.18;5.53;;;;;;;;;;1043492;28;20025;-22
2024/01/13 00:54:28;;;;;;;2.15;2.05;;;;;;;;;;1043655;28;20075;-23
2024/01/13 00:54:58;;;;;;;7.35;6.80;;;;;;;;;;1043748;28;20464;-22
2024/01/13 00:55:29;;;;;;;4.43;4.07;;;;;;;;;;1044483;28;20029;-22
2024/01/13 00:55:59;;;;;;;5.50;5.07;;;;;;;;;;1043501;28;20025;-21
2024/01/13 00:56:30;;;;;;;4.95;4.05;;;;;;;;;;1043605;28;20063;-23
2024/01/13 00:57:00;;;;;;;3.22;3.03;;;;;;;;;;1043651;28;20020;-21
2024/01/13 00:57:31;;;;;;;17.15;10.57;;;;;;;;;;1043634;28;20025;-22
2024/01/13 00:58:01;;;;;;;6.90;5.55;;;;;;;;;;1043554;28;20029;-22
2024/01/13 00:58:31;;;;;;;6.43;5.93;;;;;;;;;;1043739;28;20057;-22
2024/01/13 00:59:02;;;;;;;4.75;4.30;;;;;;;;;;1043716;28;20887;-22
2024/01/13 00:59:32;;;;;;;11.45;7.57;;;;;;;;;;1043692;28;20583;-21
2024/01/13 01:00:03;;;;;;;4.95;4.55;;;;;;;;;;1043566;28;20461;-22
2024/01/13 01:00:34;;;;;;;6.20;5.70;;;;;;;;;;1043355;28;20119;-22
2024/01/13 01:01:04;;;;;;;3.88;3.58;;;;;;;;;;1043612;28;20119;-20
2024/01/13 01:01:35;;;;;;;11.02;8.85;;;;;;;;;;1043616;28;20025;-21
2024/01/13 01:02:05;;;;;;;9.95;5.85;;;;;;;;;;1043588;28;20465;-21
2024/01/13 01:02:35;;;;;;;10.07;7.15;;;;;;;;;;1043619;28;20469;-22
2024/01/13 01:03:06;;;;;;;4.32;3.92;;;;;;;;;;1043836;28;20032;-23
2024/01/13 01:03:36;;;;;;;5.20;4.68;;;;;;;;;;1043690;28;20021;-21
2024/01/13 01:04:07;;;;;;;7.28;3.67;;;;;;;;;;1043525;28;20029;-22
2024/01/13 01:04:37;;;;;;;9.25;8.27;;;;;;;;;;1043468;28;20037;-20
2024/01/13 01:05:08;;;;;;;8.82;4.10;;;;;;;;;;1043817;28;20021;-22
2024/01/13 01:05:38;;;;;;;9.90;7.60;;;;;;;;;;1043320;28;20024;-23
2024/01/13 01:06:09;;;;;;;10.32;7.68;;;;;;;;;;1043502;28;20028;-21
2024/01/13 01:06:39;;;;;;;6.65;6.03;;;;;;;;;;1043703;28;20083;-22
2024/01/13 01:07:09;;;;;;;8.70;7.85;;;;;;;;;;1043752;28;20029;-21
2024/01/13 01:07:40;;;;;;;7.57;7.07;;;;;;;;;;1043515;28;20025;-22
2024/01/13 01:08:10;;;;;;;4.47;4.10;;;;;;;;;;1042522;28;20112;-21
2024/01/13 01:08:41;;;;;;;3.85;3.58;;;;;;;;;;1042671;28;20028;-23
2024/01/13 01:09:11;;;;;;;13.02;7.65;;;;;;;;;;1042490;28;20500;-23
2024/01/13 01:09:42;;;;;;;6.97;6.20;;;;;;;;;;1043513;28;20020;-22
2024/01/13 01:10:12;;;;;;;8.98;8.30;;;;;;;;;;1043596;28;20051;-23
2024/01/13 01:10:43;;;;;;;5.65;5.25;;;;;;;;;;1043437;28;20029;-20
2024/01/13 01:11:13;;;;;;;4.82;4.18;;;;;;;;;;1043645;28;20038;-20
2024/01/13 01:11:44;;;;;;;6.45;5.85;;;;;;;;;;1043655;28;20025;-22
2024/01/13 01:12:15;;;;;;;5.95;5.35;;;;;;;;;;1043654;28;20462;-21
2024/01/13 01:12:45;;;;;;;10.55;8.32;;;;;;;;;;1043681;28;20146;-21
2024/01/13 01:13:16;;;;;;;4.38;3.92;;;;;;;;;;1043834;28;20139;-21
2024/01/13 01:13:46;;;;;;;6.60;4.78;;;;;;;;;;1043637;28;20036;-22
2024/01/13 01:14:17;;;;;;;8.27;7.43;;;;;;;;;;1043517;28;20021;-23
2024/01/13 01:14:47;;;;;;;6.10;5.63;;;;;;;;;;1043713;28;20032;-23
2024/01/13 01:15:17;;;;;;;11.30;6.80;;;;;;;;;;1042934;28;20067;-22
2024/01/13 01:15:48;;;;;;;6.85;6.25;;;;;;;;;;1042141;28;20028;-22
2024/01/13 01:16:18;;;;;;;3.58;3.28;;;;;;;;;;1042812;28;20025;-22
2024/01/13 01:16:49;;;;;;;9.73;5.35;;;;;;;;;;1042595;28;20035;-22
2024/01/13 01:17:19;;;;;;;6.03;3.95;;;;;;;;;;1042877;28;20021;-21
2024/01/13 01:17:49;;;;;;;4.65;4.35;;;;;;;;;;1043337;28;20029;-20
2024/01/13 01:18:20;;;;;;;21.88;6.57;;;;;;;;;;1043607;28;20373;-21
2024/01/13 01:18:52;;;;;;;3.35;2.85;;;;;;;;;;1043119;28;20131;-23
2024/01/13 01:19:23;;;;;;;3.63;3.30;;;;;;;;;;1043350;28;20025;-21
2024/01/13 01:19:53;;;;;;;5.28;4.78;;;;;;;;;;1043172;28;20029;-22
2024/01/13 01:20:24;;;;;;;7.32;4.45;;;;;;;;;;1043613;28;20400;-22
2024/01/13 01:20:54;;;;;;;4.57;4.25;;;;;;;;;;1043141;28;20094;-23
2024/01/13 01:21:25;;;;;;;3.45;3.25;;;;;;;;;;1043183;28;20020;-23
2024/01/13 01:21:55;;;;;;;7.70;4.90;;;;;;;;;;1042782;28;20031;-22
2024/01/13 01:22:26;;;;;;;5.38;4.75;;;;;;;;;;1042616;28;20029;-23
2024/01/13 01:22:56;;;;;;;6.00;5.40;;;;;;;;;;1043531;28;20029;-22
2024/01/13 01:23:27;;;;;;;8.02;3.45;;;;;;;;;;1042704;28;20017;-22
2024/01/13 01:23:57;;;;;;;5.97;4.93;;;;;;;;;;1043420;28;20083;-20
2024/01/13 01:24:27;;;;;;;2.28;2.17;;;;;;;;;;1042591;28;20025;-21
2024/01/13 01:24:58;;;;;;;4.43;3.85;;;;;;;;;;1038146;28;20119;-22
2024/01/13 01:25:28;;;;;;;8.27;6.40;;;;;;;;;;1039148;28;20035;-22
2024/01/13 01:25:59;;;;;;;5.25;3.90;;;;;;;;;;1038705;28;20420;-23
2024/01/13 01:26:29;;;;;;;5.25;4.75;;;;;;;;;;1038834;28;20018;-23
2024/01/13 01:26:59;;;;;;;4.80;4.35;;;;;;;;;;1043259;28;20025;-21
2024/01/13 01:27:30;;;;;;;9.00;8.15;;;;;;;;;;1042752;28;20063;-22
2024/01/13 01:28:00;;;;;;;4.60;4.18;;;;;;;;;;1043245;28;20032;-22
2024/01/13 01:28:31;;;;;;;7.43;4.80;;;;;;;;;;1043505;28;20036;-23
2024/01/13 01:29:01;;;;;;;3.75;3.42;;;;;;;;;;1043491;28;20464;-22
2024/01/13 01:29:32;;;;;;;17.05;6.13;;;;;;;;;;1043192;28;20024;-21
2024/01/13 01:30:02;;;;;;;4.78;4.38;;;;;;;;;;1043399;28;20025;-21
2024/01/13 01:30:33;;;;;;;3.53;3.33;;;;;;;;;;1043357;28;20021;-23
2024/01/13 01:31:03;;;;;;;2.53;2.35;;;;;;;;;;1043300;28;20028;-21
2024/01/13 01:31:34;;;;;;;3.92;3.63;;;;;;;;;;1042650;28;20140;-22
2024/01/13 01:32:05;;;;;;;5.95;5.15;;;;;;;;;;1043521;28;20031;-21
2024/01/13 01:32:35;;;;;;;5.43;4.97;;;;;;;;;;1043608;28;20134;-20
2024/01/13 01:33:06;;;;;;;10.43;6.55;;;;;;;;;;1043304;28;20040;-23
2024/01/13 01:33:36;;;;;;;9.65;5.63;;;;;;;;;;1043273;28;20063;-22
2024/01/13 01:34:07;;;;;;;5.93;5.47;;;;;;;;;;1043274;28;20031;-23
2024/01/13 01:34:37;;;;;;;4.28;4.03;;;;;;;;;;1042854;28;20025;-21
2024/01/13 01:35:08;;;;;;;3.25;3.05;;;;;;;;;;1042305;28;20037;-22
2024/01/13 01:35:38;;;;;;;4.20;3.80;;;;;;;;;;1043162;28;20075;-23
2024/01/13 01:36:09;;;;;;;4.95;4.65;;;;;;;;;;1042924;28;20025;-20
2024/01/13 01:36:39;;;;;;;6.78;6.07;;;;;;;;;;1043228;28;20053;-20
2024/01/13 01:37:10;;;;;;;5.45;4.57;;;;;;;;;;1042974;28;20025;-23
2024/01/13 01:37:40;;;;;;;5.43;4.93;;;;;;;;;;1043554;28;20059;-21
2024/01/13 01:38:11;;;;;;;15.05;8.18;;;;;;;;;;1042839;28;20107;-21
2024/01/13 01:38:41;;;;;;;7.50;5.65;;;;;;;;;;1042875;28;20476;-22
2024/01/13 01:39:12;;;;;;;4.93;4.30;;;;;;;;;;1043364;28;20358;-23
2024/01/13 01:39:42;;;;;;;4.97;4.53;;;;;;;;;;1043452;28;20059;-22
2024/01/13 01:40:15;;;;;;;4.50;3.08;;;;;;;;;;1043444;28;20017;-23
2024/01/13 01:40:52;;;;;;;6.93;4.25;;;;;;;;;;1043126;28;20029;-23
2024/01/13 01:41:24;;;;;;;7.93;6.85;;;;;;;;;;1043110;28;20476;-21
2024/01/13 01:41:54;;;;;;;5.72;4.30;;;;;;;;;;1043289;28;20550;-23
2024/01/13 01:42:25;;;;;;;4.15;3.13;;;;;;;;;;1043543;28;20090;-21
2024/01/13 01:42:55;;;;;;;3.13;2.90;;;;;;;;;;1043473;28;20029;-22
2024/01/13 01:43:26;;;;;;;10.90;7.68;;;;;;;;;;1042186;28;20028;-22
2024/01/13 01:43:56;;;;;;;8.25;5.88;;;;;;;;;;1043260;28;20033;-20
2024/01/13 01:44:27;;;;;;;16.48;6.75;;;;;;;;;;1043469;28;20021;-23
2024/01/13 01:44:57;;;;;;;6.78;3.42;;;;;;;;;;1042733;28;20048;-23
2024/01/13 01:45:28;;;;;;;5.18;4.78;;;;;;;;;;1042973;28;20025;-23
2024/01/13 01:45:59;;;;;;;5.40;3.55;;;;;;;;;;1043318;28;20057;-21
2024/01/13 01:46:30;;;;;;;3.78;2.70;;;;;;;;;;1043185;28;20364;-22
2024/01/13 01:47:02;;;;;;;6.90;6.25;;;;;;;;;;1042998;28;20025;-22
2024/01/13 01:47:33;;;;;;;8.32;7.57;;;;;;;;;;1043346;28;20025;-22
2024/01/13 01:48:06;;;;;;;3.45;3.25;;;;;;;;;;1043255;28;20021;-22
2024/01/13 01:48:38;;;;;;;12.50;5.07;;;;;;;;;;1043187;28;20060;-22
2024/01/13 01:49:09;;;;;;;6.18;3.95;;;;;;;;;;1042766;28;20538;-22
2024/01/13 01:49:40;;;;;;;8.07;5.93;;;;;;;;;;1042863;28;20119;-23
2024/01/13 01:50:10;;;;;;;10.80;6.13;;;;;;;;;;1043394;28;20476;-23
2024/01/13 01:50:41;;;;;;;4.32;4.03;;;;;;;;;;1042963;28;20499;-22
2024/01/13 01:51:12;;;;;;;2.50;2.30;;;;;;;;;;1043154;28;20035;-21
2024/01/13 01:51:43;;;;;;;10.18;8.30;;;;;;;;;;1043321;28;20032;-22
2024/01/13 01:52:14;;;;;;;9.32;5.47;;;;;;;;;;1043255;28;20032;-23
2024/01/13 01:52:45;;;;;;;11.00;3.67;;;;;;;;;;1043454;28;20479;-21
2024/01/13 01:53:25;;;;;;;4.45;4.00;;;;;;;;;;1043343;28;20029;-21
2024/01/13 01:53:55;;;;;;;;;;;;;;;;;;1043026;28;20174;-23
2024/01/13 01:54:26;;;;;;;4.97;4.15;;;;;;;;;;1042676;28;19912;-23
2024/01/13 01:54:56;;;;;;;10.55;5.07;;;;;;;;;;1043344;28;20031;-22
2024/01/13 01:55:27;;;;;;;5.68;3.08;;;;;;;;;;1043941;28;20035;-21
2024/01/13 01:55:59;;;;;;;6.82;5.25;;;;;;;;;;1043182;28;20025;-21
2024/01/13 01:56:31;;;;;;;14.43;7.10;;;;;;;;;;1043100;28;20373;-22
2024/01/13 01:57:03;;;;;;;3.88;3.60;;;;;;;;;;1043175;28;20503;-22
2024/01/13 01:57:37;;;;;;;3.45;3.20;;;;;;;;;;1043356;28;20106;-21
2024/01/13 01:58:08;;;;;;;5.88;4.20;;;;;;;;;;1043134;28;20021;-23
2024/01/13 01:58:39;;;;;;;4.03;3.70;;;;;;;;;;1043170;28;20081;-22
2024/01/13 01:59:10;;;;;;;5.32;4.85;;;;;;;;;;1042742;28;20025;-22
2024/01/13 01:59:41;;;;;;;10.65;5.32;;;;;;;;;;1043320;28;20021;-23
2024/01/13 02:00:12;;;;;;;5.32;3.05;;;;;;;;;;1043240;28;20036;-22
2024/01/13 02:00:42;;;;;;;3.25;3.00;;;;;;;;;;1043213;28;20025;-22
2024/01/13 02:01:14;;;;;;;4.82;4.47;;;;;;;;;;1042918;28;20033;-22
2024/01/13 02:01:45;;;;;;;2.50;2.30;;;;;;;;;;1038700;28;20032;-22
2024/01/13 02:02:17;;;;;;;12.00;5.13;;;;;;;;;;1038364;28;20048;-22
2024/01/13 02:02:48;;;;;;;1.98;1.88;;;;;;;;;;1038803;28;20057;-21
2024/01/13 02:03:18;;;;;;;5.22;4.82;;;;;;;;;;1039262;28;20044;-21
2024/01/13 02:03:49;;;;;;;4.35;3.40;;;;;;;;;;1043379;28;20019;-19
2024/01/13 02:04:20;;;;;;;19.95;7.80;;;;;;;;;;1042807;28;20032;-23
2024/01/13 02:04:50;;;;;;;6.05;2.85;;;;;;;;;;1042899;28;20048;-20
2024/01/13 02:05:21;;;;;;;4.18;3.88;;;;;;;;;;1043196;28;20090;-21
2024/01/13 02:05:51;;;;;;;2.67;2.47;;;;;;;;;;1042984;28;20051;-21
2024/01/13 02:06:22;;;;;;;4.57;4.18;;;;;;;;;;1043091;28;20031;-23
2024/01/13 02:06:53;;;;;;;7.22;4.70;;;;;;;;;;1043458;28;20041;-21
2024/01/13 02:07:23;;;;;;;7.32;6.40;;;;;;;;;;1041661;28;20021;-21
2024/01/13 02:07:54;;;;;;;2.40;2.22;;;;;;;;;;1042636;28;20361;-23
2024/01/13 02:08:25;;;;;;;3.78;3.50;;;;;;;;;;1043161;28;20044;-23
2024/01/13 02:08:55;;;;;;;17.13;3.70;;;;;;;;;;1043356;28;20430;-23
2024/01/13 02:09:26;;;;;;;6.15;4.60;;;;;;;;;;1043039;28;20207;-22
2024/01/13 02:09:56;;;;;;;4.43;2.70;;;;;;;;;;1042214;28;20029;-21
2024/01/13 02:10:28;;;;;;;1.80;1.67;;;;;;;;;;1043145;28;20024;-23
2024/01/13 02:10:58;;;;;;;4.22;3.83;;;;;;;;;;1043810;28;20133;-22
2024/01/13 02:11:28;;;;;;;4.07;3.78;;;;;;;;;;1043030;28;20036;-23
2024/01/13 02:11:59;;;;;;;3.88;3.63;;;;;;;;;;1043168;28;20052;-23
2024/01/13 02:12:29;;;;;;;5.38;4.88;;;;;;;;;;1042570;28;20588;-21
2024/01/13 02:13:00;;;;;;;2.20;1.83;;;;;;;;;;1043318;28;20044;-22
2024/01/13 02:13:31;;;;;;;4.63;4.32;;;;;;;;;;1043089;28;20108;-23
2024/01/13 02:14:01;;;;;;;2.72;2.53;;;;;;;;;;1042951;28;20690;-21
2024/01/13 02:14:32;;;;;;;5.25;4.80;;;;;;;;;;1042818;28;20051;-23
2024/01/13 02:15:03;;;;;;;5.32;4.95;;;;;;;;;;1043252;28;20118;-23
2024/01/13 02:15:33;;;;;;;5.25;4.32;;;;;;;;;;1043108;28;20025;-21
2024/01/13 02:16:07;;;;;;;5.32;4.88;;;;;;;;;;1042740;28;20025;-22
2024/01/13 02:16:37;;;;;;;8.73;3.83;;;;;;;;;;1042935;28;20503;-22
2024/01/13 02:17:09;;;;;;;4.53;4.13;;;;;;;;;;1043293;28;20028;-21
2024/01/13 02:17:39;;;;;;;2.63;2.42;;;;;;;;;;1038618;28;20018;-22
2024/01/13 02:18:10;;;;;;;8.25;3.28;;;;;;;;;;1038617;28;20025;-23
2024/01/13 02:18:40;;;;;;;10.73;4.60;;;;;;;;;;1038032;28;20032;-22
2024/01/13 02:19:11;;;;;;;5.45;3.65;;;;;;;;;;1038080;28;20037;-21
2024/01/13 02:19:42;;;;;;;1.40;1.38;;;;;;;;;;1038102;28;20036;-23
2024/01/13 02:20:15;;;;;;;5.93;5.57;;;;;;;;;;1038814;28;20068;-21
2024/01/13 02:20:46;;;;;;;6.25;5.15;;;;;;;;;;1036322;28;20067;-21
2024/01/13 02:21:16;;;;;;;3.28;3.05;;;;;;;;;;1037053;28;20495;-23
2024/01/13 02:21:46;;;;;;;5.47;4.95;;;;;;;;;;1039075;28;20037;-20
2024/01/13 02:22:17;;;;;;;6.00;3.45;;;;;;;;;;1039578;28;20117;-21
2024/01/13 02:22:47;;;;;;;12.32;3.30;;;;;;;;;;1043602;28;20040;-23
2024/01/13 02:23:18;;;;;;;6.18;5.70;;;;;;;;;;1043939;28;20017;-23
2024/01/13 02:23:48;;;;;;;3.97;2.53;;;;;;;;;;1043594;28;20032;-22
2024/01/13 02:24:19;;;;;;;3.03;2.70;;;;;;;;;;1039457;28;20018;-23
2024/01/13 02:24:50;;;;;;;3.22;2.95;;;;;;;;;;1037053;28;20034;-22
2024/01/13 02:25:21;;;;;;;6.90;5.78;;;;;;;;;;1036120;28;20024;-23
2024/01/13 02:25:51;;;;;;;2.17;2.05;;;;;;;;;;1036657;28;20127;-23
2024/01/13 02:26:21;;;;;;;3.15;2.92;;;;;;;;;;1039344;28;20026;-23
2024/01/13 02:26:52;;;;;;;8.45;5.38;;;;;;;;;;1044056;28;20029;-23
2024/01/13 02:27:22;;;;;;;1.88;1.77;;;;;;;;;;1043839;28;20037;-22
2024/01/13 02:27:53;;;;;;;10.63;5.60;;;;;;;;;;1043617;28;20025;-23
2024/01/13 02:28:24;;;;;;;3.92;3.63;;;;;;;;;;1043849;28;20431;-23
2024/01/13 02:28:54;;;;;;;5.80;4.90;;;;;;;;;;1043505;28;20025;-21
2024/01/13 02:29:25;;;;;;;1.13;0.82;;;;;;;;;;1038936;28;20021;-22
2024/01/13 02:29:55;;;;;;;3.63;3.38;;;;;;;;;;1038169;28;20025;-22
2024/01/13 02:30:26;;;;;;;2.28;2.08;;;;;;;;;;1039334;28;20387;-24
2024/01/13 02:30:57;;;;;;;5.32;2.65;;;;;;;;;;1039815;28;20027;-24
2024/01/13 02:31:27;;;;;;;4.18;3.33;;;;;;;;;;1043809;28;20020;-22
2024/01/13 02:31:58;;;;;;;2.13;2.03;;;;;;;;;;1043433;28;20114;-23
2024/01/13 02:32:28;;;;;;;2.22;2.08;;;;;;;;;;1042876;28;20077;-23
2024/01/13 02:32:59;;;;;;;5.97;3.10;;;;;;;;;;1043341;28;20116;-23
2024/01/13 02:33:30;;;;;;;5.43;4.97;;;;;;;;;;1038867;28;20033;-22
2024/01/13 02:34:01;;;;;;;5.68;2.47;;;;;;;;;;1039255;28;20508;-22
2024/01/13 02:34:31;;;;;;;6.32;5.75;;;;;;;;;;1039417;28;20029;-23
2024/01/13 02:35:02;;;;;;;5.57;3.78;;;;;;;;;;1039249;28;20100;-23
2024/01/13 02:35:32;;;;;;;2.60;2.47;;;;;;;;;;1038040;28;20061;-23
2024/01/13 02:36:03;;;;;;;1.00;1.00;;;;;;;;;;1037840;28;20052;-23
2024/01/13 02:36:34;;;;;;;5.03;4.57;;;;;;;;;;1038267;28;20033;-23
2024/01/13 02:37:05;;;;;;;7.68;5.95;;;;;;;;;;1041738;28;20028;-22
2024/01/13 02:37:35;;;;;;;7.72;4.22;;;;;;;;;;1042035;28;20107;-22
2024/01/13 02:38:06;;;;;;;1.92;1.83;;;;;;;;;;1041386;28;20028;-23
2024/01/13 02:38:37;;;;;;;5.13;2.67;;;;;;;;;;1043579;28;20120;-22
2024/01/13 02:39:07;;;;;;;5.68;5.00;;;;;;;;;;1043604;28;20017;-23
2024/01/13 02:39:38;;;;;;;5.72;3.90;;;;;;;;;;1043415;28;20052;-23
2024/01/13 02:40:09;;;;;;;4.82;4.47;;;;;;;;;;1043953;28;20055;-22
2024/01/13 02:40:39;;;;;;;2.20;2.10;;;;;;;;;;1043436;28;20024;-22
2024/01/13 02:41:10;;;;;;;2.72;1.67;;;;;;;;;;1042995;28;20095;-23
2024/01/13 02:41:43;;;;;;;2.40;2.22;;;;;;;;;;1038285;28;20106;-22
2024/01/13 02:42:13;;;;;;;4.85;4.20;;;;;;;;;;1039010;28;20022;-21
2024/01/13 02:42:44;;;;;;;7.32;3.22;;;;;;;;;;1037778;28;20029;-21
2024/01/13 02:43:14;;;;;;;4.20;3.80;;;;;;;;;;1038292;28;20099;-22
2024/01/13 02:43:46;;;;;;;6.45;4.80;;;;;;;;;;1042354;28;20120;-21
2024/01/13 02:44:16;;;;;;;5.03;4.65;;;;;;;;;;1043567;28;20032;-21
2024/01/13 02:44:47;;;;;;;2.63;2.42;;;;;;;;;;1040195;28;20037;-24
2024/01/13 02:45:17;;;;;;;2.67;2.47;;;;;;;;;;1042965;28;20401;-23
2024/01/13 02:45:48;;;;;;;4.65;3.17;;;;;;;;;;1043267;28;20053;-22
2024/01/13 02:46:18;;;;;;;3.50;3.25;;;;;;;;;;1042116;28;20039;-21
2024/01/13 02:46:49;;;;;;;4.30;2.75;;;;;;;;;;1042622;28;20029;-23
2024/01/13 02:47:23;;;;;;;5.95;5.50;;;;;;;;;;1041898;28;20029;-21
2024/01/13 02:48:26;;;;;;;9.52;3.33;;;;;;;;;;1042622;28;20127;-22
2024/01/13 02:48:57;;;;;;;3.53;3.30;;;;;;;;;;1021208;29;20471;-21
2024/01/13 02:49:28;;;;;;;4.32;3.60;;;;;;;;;;1016990;29;20683;-22
2024/01/13 02:49:58;;;;;;;7.03;2.55;;;;;;;;;;1024414;28;20028;-22
2024/01/13 02:50:29;;;;;;;2.58;2.45;;;;;;;;;;1033037;28;20053;-21
2024/01/13 02:51:01;;;;;;;4.18;3.90;;;;;;;;;;1031432;28;20168;-22
2024/01/13 02:51:32;;;;;;;1.90;1.80;;;;;;;;;;1037006;28;20029;-23
2024/01/13 02:52:03;;;;;;;4.22;3.83;;;;;;;;;;1043023;28;20032;-23
2024/01/13 02:52:34;;;;;;;2.78;2.58;;;;;;;;;;1038061;28;20574;-22
2024/01/13 02:53:04;;;;;;;2.88;2.67;;;;;;;;;;1039112;28;20063;-20
2024/01/13 02:53:34;;;;;;;5.00;4.70;;;;;;;;;;1038859;28;20029;-24
2024/01/13 02:54:05;;;;;;;4.53;3.50;;;;;;;;;;1039321;28;20441;-23
2024/01/13 02:54:37;;;;;;;4.80;4.35;;;;;;;;;;1038144;28;20107;-23
2024/01/13 02:55:08;;;;;;;3.08;2.88;;;;;;;;;;1039410;28;20547;-24
2024/01/13 02:55:39;;;;;;;3.80;3.50;;;;;;;;;;1038373;28;20029;-23
2024/01/13 02:56:09;;;;;;;4.72;4.32;;;;;;;;;;1038888;28;20112;-23
2024/01/13 02:56:40;;;;;;;3.78;3.50;;;;;;;;;;1042674;28;20032;-22
2024/01/13 02:57:10;;;;;;;6.43;4.00;;;;;;;;;;1042956;28;20044;-23
2024/01/13 02:57:41;;;;;;;5.72;5.28;;;;;;;;;;1043891;28;20036;-22
2024/01/13 02:58:12;;;;;;;4.85;1.85;;;;;;;;;;1043877;28;20021;-23
2024/01/13 02:58:44;;;;;;;3.95;3.65;;;;;;;;;;1042714;28;20021;-22
2024/01/13 02:59:17;;;;;;;4.80;4.28;;;;;;;;;;1037762;28;20965;-22
2024/01/13 02:59:49;;;;;;;4.35;3.58;;;;;;;;;;1035209;28;20619;-23
2024/01/13 03:00:22;;;;;;;5.45;4.88;;;;;;;;;;1034300;28;20034;-23
2024/01/13 03:00:56;;;;;;;2.40;2.20;;;;;;;;;;1035265;28;20101;-24
2024/01/13 03:01:31;;;;;;;3.47;3.17;;;;;;;;;;1037190;28;20025;-23
2024/01/13 03:02:05;;;;;;;4.45;3.92;;;;;;;;;;1035005;28;20018;-23
2024/01/13 03:02:39;;;;;;;1.08;1.05;;;;;;;;;;1033015;28;20026;-23
2024/01/13 03:03:10;;;;;;;4.43;3.83;;;;;;;;;;1028435;28;21293;-23
2024/01/13 03:03:41;;;;;;;2.50;2.30;;;;;;;;;;1031770;28;20029;-23
2024/01/13 03:04:11;;;;;;;8.65;1.73;;;;;;;;;;1034701;28;20035;-21